createdAt,value
2022-08-27T00:02:35.551Z,100418.16
2022-08-27T00:07:37.675Z,100390.16
2022-08-27T00:12:37.813Z,100393.66
2022-08-27T00:17:36.605Z,100399.25
2022-08-27T00:22:37.995Z,100412.31
2022-08-27T00:27:43.177Z,100407.50
2022-08-27T00:32:43.074Z,100404.31
2022-08-27T00:37:41.881Z,100438.44
2022-08-27T00:42:42.627Z,100446.69
2022-08-27T00:47:50.642Z,100433.84
2022-08-27T00:52:55.767Z,100451.72
2022-08-27T00:58:24.302Z,100405.56
2022-08-27T01:03:23.061Z,100434.41
2022-08-27T01:08:23.908Z,100443.72
2022-08-27T01:13:54.434Z,100402.84
2022-08-27T01:18:46.755Z,100436.97
2022-08-27T01:24:23.193Z,100456.47
2022-08-27T01:29:24.700Z,100412.63
2022-08-27T01:34:27.626Z,100415.63
2022-08-27T01:39:27.224Z,100444.56
2022-08-27T01:44:31.376Z,100461.66
2022-08-27T01:49:31.472Z,100419.09
2022-08-27T01:54:31.834Z,100426.09
2022-08-27T01:59:39.383Z,100434.06
2022-08-27T02:04:40.352Z,100428.06
2022-08-27T02:09:43.246Z,100426.31
2022-08-27T02:14:44.765Z,100431.84
2022-08-27T02:19:45.525Z,100440.53
2022-08-27T02:24:44.888Z,100432.25
2022-08-27T02:29:44.030Z,100446.88
2022-08-27T02:34:44.749Z,100474.06
2022-08-27T02:39:46.711Z,100441.41
2022-08-27T02:44:45.333Z,100436.69
2022-08-27T02:49:48.112Z,100456.88
2022-08-27T02:54:52.406Z,100420.16
2022-08-27T02:59:53.812Z,100441.63
2022-08-27T03:04:54.845Z,100431.78
2022-08-27T03:09:57.077Z,100438.75
2022-08-27T03:14:56.606Z,100441.19
2022-08-27T03:19:55.733Z,100445.06
2022-08-27T03:24:56.713Z,100453.56
2022-08-27T03:29:59.585Z,100442.41
2022-08-27T03:35:03.232Z,100437.88
2022-08-27T03:40:06.046Z,100434.72
2022-08-27T03:45:06.021Z,100438.50
2022-08-27T03:50:11.731Z,100482.72
2022-08-27T03:55:15.493Z,100459.53
2022-08-27T04:00:14.485Z,100471.84
2022-08-27T04:05:23.523Z,100457.25
2022-08-27T04:10:24.901Z,100463.25
2022-08-27T04:15:29.017Z,100463.50
2022-08-27T04:20:48.456Z,100447.97
2022-08-27T04:25:50.689Z,100458.75
2022-08-27T04:30:52.506Z,100478.81
2022-08-27T04:36:11.183Z,100458.75
2022-08-27T04:41:35.223Z,100497.56
2022-08-27T04:46:37.928Z,100473.69
2022-08-27T04:51:37.065Z,100495.94
2022-08-27T04:56:44.672Z,100484.91
2022-08-27T05:01:44.936Z,100514.19
2022-08-27T05:06:46.195Z,100512.75
2022-08-27T05:11:47.174Z,100518.50
2022-08-27T05:16:47.804Z,100496.19
2022-08-27T05:21:53.541Z,100554.75
2022-08-27T05:26:53.864Z,100527.78
2022-08-27T05:31:59.823Z,100520.78
2022-08-27T05:37:00.945Z,100547.50
2022-08-27T05:42:00.338Z,100561.81
2022-08-27T05:47:02.188Z,100524.16
2022-08-27T05:52:07.925Z,100533.25
2022-08-27T05:57:12.736Z,100570.22
2022-08-27T06:02:11.909Z,100563.59
2022-08-27T06:07:11.097Z,100540.38
2022-08-27T06:12:09.855Z,100535.91
2022-08-27T06:17:11.292Z,100544.22
2022-08-27T06:22:10.944Z,100546.41
2022-08-27T06:27:15.272Z,100566.78
2022-08-27T06:32:15.550Z,100536.03
2022-08-27T06:37:13.409Z,100553.41
2022-08-27T06:42:13.366Z,100565.44
2022-08-27T06:47:12.441Z,100544.91
2022-08-27T06:52:11.693Z,100570.28
2022-08-27T06:57:11.005Z,100580.13
2022-08-27T07:02:09.581Z,100565.97
2022-08-27T07:07:08.823Z,100561.75
2022-08-27T07:12:07.379Z,100578.53
2022-08-27T07:17:10.881Z,100603.03
2022-08-27T07:22:15.684Z,100589.13
2022-08-27T07:27:14.506Z,100582.66
2022-08-27T07:32:13.070Z,100593.75
2022-08-27T07:37:14.753Z,100576.13
2022-08-27T07:42:33.079Z,100572.81
2022-08-27T07:47:32.192Z,100580.22
2022-08-27T07:52:34.599Z,100574.06
2022-08-27T07:57:36.345Z,100562.13
2022-08-27T08:02:36.247Z,100559.25
2022-08-27T08:07:35.383Z,100564.88
2022-08-27T08:12:36.165Z,100597.88
2022-08-27T08:17:35.969Z,100560.81
2022-08-27T08:22:35.287Z,100561.19
2022-08-27T08:27:36.083Z,100591.59
2022-08-27T08:32:37.657Z,100568.72
2022-08-27T08:37:36.417Z,100577.88
2022-08-27T08:42:50.576Z,100587.75
2022-08-27T08:47:52.817Z,100583.25
2022-08-27T08:52:56.166Z,100592.38
2022-08-27T08:58:00.466Z,100587.94
2022-08-27T09:02:59.414Z,100543.75
2022-08-27T09:08:21.777Z,100568.59
2022-08-27T09:13:28.843Z,100536.13
2022-08-27T09:18:28.143Z,100545.44
2022-08-27T09:23:34.085Z,100574.97
2022-08-27T09:29:00.964Z,100540.72
2022-08-27T09:34:00.264Z,100556.94
2022-08-27T09:39:02.669Z,100553.91
2022-08-27T09:44:03.912Z,100544.22
2022-08-27T09:49:13.010Z,100568.06
2022-08-27T09:54:11.899Z,100563.00
2022-08-27T09:59:41.729Z,100573.72
2022-08-27T10:04:50.363Z,100568.34
2022-08-27T10:10:11.202Z,100563.94
2022-08-27T10:15:09.831Z,100545.78
2022-08-27T10:20:32.953Z,100579.53
2022-08-27T10:25:59.073Z,100560.84
2022-08-27T10:31:26.357Z,100571.69
2022-08-27T10:36:38.179Z,100545.28
2022-08-27T10:41:47.536Z,100546.50
2022-08-27T10:47:07.244Z,100555.22
2022-08-27T10:52:13.091Z,100567.31
2022-08-27T10:57:54.289Z,100544.75
2022-08-27T11:03:08.424Z,100562.69
2022-08-27T11:08:19.313Z,100560.50
2022-08-27T11:13:33.996Z,100518.56
2022-08-27T11:18:44.617Z,100520.63
2022-08-27T11:23:54.030Z,100537.75
2022-08-27T11:29:03.015Z,100544.88
2022-08-27T11:34:55.680Z,100555.50
2022-08-27T11:39:59.286Z,100543.06
2022-08-27T11:45:07.964Z,100503.47
2022-08-27T11:50:23.955Z,100537.53
2022-08-27T11:55:24.276Z,100530.81
2022-08-27T12:00:29.500Z,100525.06
2022-08-27T12:06:06.241Z,100520.16
2022-08-27T12:11:31.834Z,100525.81
2022-08-27T12:16:44.983Z,100521.91
2022-08-27T12:21:50.802Z,100490.84
2022-08-27T12:27:01.753Z,100486.69
2022-08-27T12:32:25.156Z,100517.63
2022-08-27T12:37:57.641Z,100474.59
2022-08-27T12:43:29.762Z,100469.06
2022-08-27T12:48:36.392Z,100472.19
2022-08-27T12:53:55.018Z,100496.63
2022-08-27T12:59:01.004Z,100498.09
2022-08-27T13:04:11.609Z,100461.72
2022-08-27T13:09:14.588Z,100469.53
2022-08-27T13:14:17.217Z,100460.06
2022-08-27T13:19:38.849Z,100462.78
2022-08-27T13:24:56.828Z,100473.25
2022-08-27T13:30:01.995Z,100481.41
2022-08-27T13:35:01.316Z,100459.44
2022-08-27T13:40:00.560Z,100475.44
2022-08-27T13:45:05.615Z,100462.72
2022-08-27T13:50:24.771Z,100478.91
2022-08-27T13:55:24.006Z,100474.28
2022-08-27T14:00:34.973Z,100490.09
2022-08-27T14:05:41.912Z,100466.13
2022-08-27T14:10:45.483Z,100485.03
2022-08-27T14:15:51.852Z,100452.44
2022-08-27T14:20:51.497Z,100481.66
2022-08-27T14:25:50.642Z,100472.44
2022-08-27T14:30:53.183Z,100461.13
2022-08-27T14:35:55.107Z,100480.81
2022-08-27T14:40:54.695Z,100462.13
2022-08-27T14:45:55.311Z,100461.31
2022-08-27T14:50:58.351Z,100473.81
2022-08-27T14:55:59.170Z,100473.91
2022-08-27T15:01:02.014Z,100480.38
2022-08-27T15:06:04.068Z,100468.72
2022-08-27T15:11:03.739Z,100462.91
2022-08-27T15:16:06.864Z,100481.72
2022-08-27T15:21:08.178Z,100490.00
2022-08-27T15:26:10.363Z,100473.94
2022-08-27T15:31:11.404Z,100472.50
2022-08-27T15:36:09.929Z,100477.25
2022-08-27T15:41:10.480Z,100487.94
2022-08-27T15:46:13.109Z,100471.28
2022-08-27T15:51:14.591Z,100478.22
2022-08-27T15:56:17.978Z,100479.44
2022-08-27T16:01:26.613Z,100469.63
2022-08-27T16:06:24.446Z,100472.53
2022-08-27T16:11:23.863Z,100469.56
2022-08-27T16:16:25.659Z,100464.16
2022-08-27T16:21:24.164Z,100489.47
2022-08-27T16:26:26.148Z,100475.84
2022-08-27T16:31:24.782Z,100478.44
2022-08-27T16:36:23.836Z,100475.03
2022-08-27T16:41:23.439Z,100480.97
2022-08-27T16:46:21.051Z,100468.59
2022-08-27T16:51:27.824Z,100478.94
2022-08-27T16:56:28.383Z,100479.53
2022-08-27T17:01:28.462Z,100504.56
2022-08-27T17:06:27.586Z,100479.25
2022-08-27T17:11:29.202Z,100486.69
2022-08-27T17:16:33.829Z,100472.38
2022-08-27T17:21:35.017Z,100488.59
2022-08-27T17:26:38.874Z,100517.13
2022-08-27T17:31:47.708Z,100506.06
2022-08-27T17:36:56.625Z,100493.91
2022-08-27T17:41:56.246Z,100509.25
2022-08-27T17:47:07.380Z,100518.59
2022-08-27T17:52:21.116Z,100523.56
2022-08-27T17:57:37.415Z,100560.50
2022-08-27T18:02:53.327Z,100527.88
2022-08-27T18:13:45.628Z,100574.09
2022-08-27T18:18:57.324Z,100560.44
2022-08-27T18:29:38.776Z,100576.38
2022-08-27T18:34:47.759Z,100581.09
2022-08-27T18:40:16.259Z,100596.25
2022-08-27T18:45:31.529Z,100617.03
2022-08-27T18:50:37.406Z,100576.16
2022-08-27T18:55:46.609Z,100606.25
2022-08-27T19:01:11.800Z,100596.94
2022-08-27T19:06:13.716Z,100574.72
2022-08-27T19:11:22.068Z,100623.66
2022-08-27T19:16:34.697Z,100615.16
2022-08-27T19:21:41.235Z,100646.41
2022-08-27T19:26:41.068Z,100607.94
2022-08-27T19:31:49.725Z,100617.31
2022-08-27T19:36:48.048Z,100651.38
2022-08-27T19:41:47.375Z,100649.03
2022-08-27T19:46:46.053Z,100645.06
2022-08-27T19:51:44.269Z,100635.16
2022-08-27T19:56:42.971Z,100636.53
2022-08-27T20:01:46.899Z,100635.56
2022-08-27T20:06:46.730Z,100632.03
2022-08-27T20:11:51.336Z,100624.31
2022-08-27T20:16:49.674Z,100658.25
2022-08-27T20:21:48.286Z,100658.31
2022-08-27T20:26:46.808Z,100632.09
2022-08-27T20:31:44.662Z,100619.25
2022-08-27T20:36:45.352Z,100612.66
2022-08-27T20:41:46.379Z,100631.09
2022-08-27T20:46:51.035Z,100664.47
2022-08-27T20:52:02.238Z,100629.59
2022-08-27T20:57:03.041Z,100635.38
2022-08-27T21:02:07.194Z,100628.16
2022-08-27T21:07:06.711Z,100615.97
2022-08-27T21:12:04.573Z,100646.88
2022-08-27T21:17:03.809Z,100647.44
2022-08-27T21:22:06.557Z,100661.06
2022-08-27T21:27:06.296Z,100645.44
2022-08-27T21:32:07.560Z,100647.41
2022-08-27T21:37:06.037Z,100635.38
2022-08-27T21:42:04.222Z,100652.06
2022-08-27T21:47:04.758Z,100677.88
2022-08-27T21:52:04.882Z,100645.94
2022-08-27T21:57:04.515Z,100679.91
2022-08-27T22:02:05.182Z,100669.03
2022-08-27T22:07:13.432Z,100632.72
2022-08-27T22:12:12.211Z,100671.41
2022-08-27T22:17:15.956Z,100635.66
2022-08-27T22:22:14.821Z,100620.41
2022-08-27T22:27:13.835Z,100655.13
2022-08-27T22:32:12.405Z,100634.06
2022-08-27T22:37:10.932Z,100615.66
2022-08-27T22:42:09.380Z,100618.31
2022-08-27T22:47:12.242Z,100617.25
2022-08-27T22:52:10.824Z,100637.28
2022-08-27T22:57:10.634Z,100604.41
2022-08-27T23:02:10.619Z,100622.06
2022-08-27T23:07:09.199Z,100603.84
2022-08-27T23:12:09.374Z,100619.56
2022-08-27T23:17:07.650Z,100612.41
2022-08-27T23:22:06.602Z,100598.78
2022-08-27T23:27:25.020Z,100641.50
2022-08-27T23:32:23.723Z,100657.50
2022-08-27T23:37:24.075Z,100634.22
2022-08-27T23:42:21.918Z,100622.25
2022-08-27T23:47:20.212Z,100615.06
2022-08-27T23:52:18.428Z,100628.56
2022-08-27T23:57:16.608Z,100612.84
